Time;durP1;ratioP1;P1;durP2;ratioP2;P2;SDS_P1;SDS_P2;PMS_P1;PMS_P2;Temp;Humidity;BMP_temperature;BMP_pressure;BME280_temperature;BME280_humidity;BME280_pressure;Samples;Min_cycle;Max_cycle;Signal;HPM_P1;HPM_P2
2022/08/16 00:00:43;;;;;;;;;36.33;33.00;;;;;;;;4987943;28;45781;-74
2022/08/16 00:03:09;;;;;;;;;34.33;30.33;;;;;;;;4990060;28;45389;-74
2022/08/16 00:05:34;;;;;;;;;35.67;32.33;;;;;;;;4990569;27;45375;-73
2022/08/16 00:07:59;;;;;;;;;36.67;33.00;;;;;;;;4990307;28;45420;-73
2022/08/16 00:10:26;;;;;;;;;38.33;33.00;;;;;;;;4990185;27;45338;-74
2022/08/16 00:12:51;;;;;;;;;37.00;32.33;;;;;;;;4984616;28;45309;-73
2022/08/16 00:15:22;;;;;;;;;39.33;33.33;;;;;;;;4991347;27;45193;-73
2022/08/16 00:17:48;;;;;;;;;35.67;33.00;;;;;;;;4985563;27;45348;-73
2022/08/16 00:20:13;;;;;;;;;39.67;33.00;;;;;;;;4988751;27;45353;-73
2022/08/16 00:22:39;;;;;;;;;32.33;30.00;;;;;;;;4979427;27;45291;-73
2022/08/16 00:25:08;;;;;;;;;36.00;32.67;;;;;;;;4988818;27;45420;-73
2022/08/16 00:27:33;;;;;;;;;39.00;32.33;;;;;;;;4985321;27;45313;-73
2022/08/16 00:29:58;;;;;;;;;33.33;31.00;;;;;;;;4993062;28;45756;-73
2022/08/16 00:32:24;;;;;;;;;33.00;31.00;;;;;;;;4983518;27;45365;-74
2022/08/16 00:34:49;;;;;;;;;36.67;32.00;;;;;;;;5006261;27;45484;-73
2022/08/16 00:37:14;;;;;;;;;39.00;32.67;;;;;;;;4984771;27;45255;-73
2022/08/16 00:39:39;;;;;;;;;36.00;32.67;;;;;;;;4983526;27;45230;-74
2022/08/16 00:42:04;;;;;;;;;38.33;34.00;;;;;;;;4984852;28;45184;-73
2022/08/16 00:44:30;;;;;;;;;40.33;31.67;;;;;;;;4986433;28;45223;-73
2022/08/16 00:47:07;;;;;;;;;41.00;34.33;;;;;;;;4984235;27;45160;-73
2022/08/16 00:49:34;;;;;;;;;40.00;34.67;;;;;;;;4983029;28;45440;-73
2022/08/16 00:51:59;;;;;;;;;38.00;35.00;;;;;;;;4985889;28;47407;-74
2022/08/16 00:54:26;;;;;;;;;39.33;34.33;;;;;;;;4992084;27;48220;-74
2022/08/16 00:56:51;;;;;;;;;34.00;32.00;;;;;;;;4990343;27;45308;-73
2022/08/16 00:59:18;;;;;;;;;39.67;33.67;;;;;;;;4994768;28;45290;-73
2022/08/16 01:01:44;;;;;;;;;37.00;32.67;;;;;;;;4980588;27;46325;-73
2022/08/16 01:04:09;;;;;;;;;40.00;35.33;;;;;;;;4997285;27;45270;-73
2022/08/16 01:06:35;;;;;;;;;35.00;32.67;;;;;;;;4984162;27;45393;-73
2022/08/16 01:09:05;;;;;;;;;35.67;33.00;;;;;;;;4981397;27;45271;-73
2022/08/16 01:11:31;;;;;;;;;32.67;31.67;;;;;;;;4988007;27;46235;-73
2022/08/16 01:13:59;;;;;;;;;33.67;30.33;;;;;;;;4990931;28;45255;-73
2022/08/16 01:16:26;;;;;;;;;35.33;31.67;;;;;;;;4980633;27;45319;-73
2022/08/16 01:19:06;;;;;;;;;31.67;29.67;;;;;;;;4986182;28;45228;-73
2022/08/16 01:21:35;;;;;;;;;33.00;30.00;;;;;;;;4982837;27;45323;-73
2022/08/16 01:24:15;;;;;;;;;36.33;31.67;;;;;;;;4988383;28;45287;-73
2022/08/16 01:26:41;;;;;;;;;37.00;32.00;;;;;;;;4986116;28;45788;-73
2022/08/16 01:29:09;;;;;;;;;39.00;30.00;;;;;;;;4990100;28;45307;-74
2022/08/16 01:31:35;;;;;;;;;30.00;29.67;;;;;;;;4984756;27;45691;-73
2022/08/16 01:34:00;;;;;;;;;36.00;33.00;;;;;;;;5000415;27;45196;-73
2022/08/16 01:36:25;;;;;;;;;36.00;33.00;;;;;;;;4991245;27;45477;-73
2022/08/16 01:38:50;;;;;;;;;30.00;29.67;;;;;;;;4979470;28;46384;-73
2022/08/16 01:41:23;;;;;;;;;33.67;31.33;;;;;;;;4986050;27;44935;-73
2022/08/16 01:43:49;;;;;;;;;35.00;32.00;;;;;;;;4982763;27;45286;-73
2022/08/16 01:46:22;;;;;;;;;34.00;31.67;;;;;;;;4989889;28;45514;-73
2022/08/16 01:48:49;;;;;;;;;32.00;30.00;;;;;;;;4985143;27;45424;-73
2022/08/16 01:51:15;;;;;;;;;34.67;33.00;;;;;;;;4989191;27;45324;-73
2022/08/16 01:53:41;;;;;;;;;37.33;33.00;;;;;;;;4987669;27;45173;-73
2022/08/16 01:56:06;;;;;;;;;33.00;31.33;;;;;;;;4984668;28;45220;-73
2022/08/16 01:58:31;;;;;;;;;33.67;30.67;;;;;;;;4989409;27;46166;-73
2022/08/16 02:00:56;;;;;;;;;36.33;33.00;;;;;;;;4987936;27;45762;-73
2022/08/16 02:03:23;;;;;;;;;35.00;31.67;;;;;;;;4994814;27;45353;-73
2022/08/16 02:05:48;;;;;;;;;37.00;31.67;;;;;;;;4988260;27;45420;-73
2022/08/16 02:08:13;;;;;;;;;36.33;32.00;;;;;;;;4979365;27;45311;-73
2022/08/16 02:10:39;;;;;;;;;35.67;30.00;;;;;;;;4980502;28;45296;-73
2022/08/16 02:13:05;;;;;;;;;35.33;32.33;;;;;;;;4988243;27;45304;-73
2022/08/16 02:15:32;;;;;;;;;36.33;30.67;;;;;;;;4987894;27;45365;-73
2022/08/16 02:17:58;;;;;;;;;35.33;30.67;;;;;;;;4979423;27;45406;-73
2022/08/16 02:20:24;;;;;;;;;33.33;31.00;;;;;;;;4988388;28;46227;-73
2022/08/16 02:22:49;;;;;;;;;33.33;31.33;;;;;;;;4982826;27;45285;-73
2022/08/16 02:25:15;;;;;;;;;31.00;29.67;;;;;;;;4978677;27;45266;-73
2022/08/16 02:27:42;;;;;;;;;31.00;30.33;;;;;;;;4984881;28;45400;-73
2022/08/16 02:30:11;;;;;;;;;34.67;33.00;;;;;;;;4979503;27;47713;-73
2022/08/16 02:32:36;;;;;;;;;36.33;31.67;;;;;;;;4981313;27;45474;-73
2022/08/16 02:35:01;;;;;;;;;36.00;34.00;;;;;;;;5013759;27;45321;-73
2022/08/16 02:37:26;;;;;;;;;35.33;32.67;;;;;;;;4988458;28;46442;-73
2022/08/16 02:39:52;;;;;;;;;39.67;33.67;;;;;;;;4987620;27;45386;-74
2022/08/16 02:42:18;;;;;;;;;34.67;32.67;;;;;;;;4986316;28;45253;-73
2022/08/16 02:44:44;;;;;;;;;34.33;30.00;;;;;;;;4990258;28;45309;-73
2022/08/16 02:47:10;;;;;;;;;33.00;30.00;;;;;;;;4984181;27;45161;-73
2022/08/16 02:49:35;;;;;;;;;38.67;33.33;;;;;;;;4990632;28;46028;-73
2022/08/16 02:52:00;;;;;;;;;37.33;33.00;;;;;;;;4986944;28;45386;-73
2022/08/16 02:54:26;;;;;;;;;31.00;30.00;;;;;;;;4995342;28;45595;-73
2022/08/16 02:56:51;;;;;;;;;36.67;32.67;;;;;;;;4979338;27;45304;-73
2022/08/16 02:59:16;;;;;;;;;35.00;31.00;;;;;;;;4979030;27;46469;-73
2022/08/16 03:01:41;;;;;;;;;32.67;31.67;;;;;;;;4980682;28;45348;-73
2022/08/16 03:04:06;;;;;;;;;36.33;32.67;;;;;;;;4982718;28;45488;-73
2022/08/16 03:06:32;;;;;;;;;36.33;32.00;;;;;;;;4981500;28;45908;-73
2022/08/16 03:08:57;;;;;;;;;42.67;34.67;;;;;;;;4985931;28;46114;-73
2022/08/16 03:11:23;;;;;;;;;43.00;33.67;;;;;;;;4984949;27;45434;-73
2022/08/16 03:13:49;;;;;;;;;35.33;33.00;;;;;;;;4989895;28;45326;-73
2022/08/16 03:16:15;;;;;;;;;36.00;31.67;;;;;;;;4980392;27;45307;-74
2022/08/16 03:18:40;;;;;;;;;33.67;32.33;;;;;;;;4982328;28;46621;-73
2022/08/16 03:21:06;;;;;;;;;32.33;31.00;;;;;;;;4985718;28;45424;-74
2022/08/16 03:23:31;;;;;;;;;33.33;31.33;;;;;;;;4984036;28;45459;-74
2022/08/16 03:25:57;;;;;;;;;40.67;33.33;;;;;;;;4988948;27;47421;-74
2022/08/16 03:28:22;;;;;;;;;32.67;30.33;;;;;;;;4982432;27;45170;-74
2022/08/16 03:30:47;;;;;;;;;40.33;33.67;;;;;;;;4983433;28;45439;-74
2022/08/16 03:33:13;;;;;;;;;38.67;33.33;;;;;;;;4982691;28;45401;-74
2022/08/16 03:35:39;;;;;;;;;33.67;30.67;;;;;;;;5017993;27;46737;-73
2022/08/16 03:38:07;;;;;;;;;39.33;33.00;;;;;;;;4985992;27;45754;-73
2022/08/16 03:40:33;;;;;;;;;33.33;30.00;;;;;;;;4984228;27;45403;-73
2022/08/16 03:42:58;;;;;;;;;33.67;30.33;;;;;;;;4991023;27;45261;-73
2022/08/16 03:45:24;;;;;;;;;33.33;29.00;;;;;;;;4990765;27;45570;-74
2022/08/16 03:47:49;;;;;;;;;37.67;33.33;;;;;;;;4991830;27;45236;-73
2022/08/16 03:50:15;;;;;;;;;35.33;32.67;;;;;;;;4987540;27;45460;-73
2022/08/16 03:52:40;;;;;;;;;35.33;29.67;;;;;;;;4993072;27;45355;-73
2022/08/16 03:55:06;;;;;;;;;38.67;32.00;;;;;;;;4990687;28;45457;-73
2022/08/16 03:57:32;;;;;;;;;40.67;34.33;;;;;;;;4985122;27;45618;-73
2022/08/16 03:59:57;;;;;;;;;43.33;34.33;;;;;;;;4993838;28;45418;-73
2022/08/16 04:02:22;;;;;;;;;37.67;32.33;;;;;;;;4986040;27;45382;-75
2022/08/16 04:04:48;;;;;;;;;39.67;35.67;;;;;;;;4989236;27;45416;-73
2022/08/16 04:07:14;;;;;;;;;39.67;33.33;;;;;;;;4981021;27;45406;-73
2022/08/16 04:09:39;;;;;;;;;37.33;33.00;;;;;;;;4984259;27;45431;-73
2022/08/16 04:12:05;;;;;;;;;38.67;33.33;;;;;;;;4989335;28;45302;-73
2022/08/16 04:14:30;;;;;;;;;41.33;34.33;;;;;;;;4987926;27;46108;-73
2022/08/16 04:16:56;;;;;;;;;31.67;28.33;;;;;;;;4981313;27;45417;-73
2022/08/16 04:19:24;;;;;;;;;38.67;34.33;;;;;;;;4988320;27;45350;-73
2022/08/16 04:21:50;;;;;;;;;40.00;35.00;;;;;;;;4986185;27;45502;-73
2022/08/16 04:24:15;;;;;;;;;40.00;34.00;;;;;;;;4990419;28;45497;-73
2022/08/16 04:26:40;;;;;;;;;40.33;33.33;;;;;;;;4988299;27;47971;-73
2022/08/16 04:29:05;;;;;;;;;40.67;34.33;;;;;;;;4979346;27;45331;-73
2022/08/16 04:31:31;;;;;;;;;37.00;33.67;;;;;;;;4984008;28;45418;-73
2022/08/16 04:33:58;;;;;;;;;39.00;34.00;;;;;;;;4998935;27;45429;-73
2022/08/16 04:36:24;;;;;;;;;40.33;34.33;;;;;;;;4993463;27;45395;-73
2022/08/16 04:38:49;;;;;;;;;36.00;32.33;;;;;;;;4982559;28;45296;-73
2022/08/16 04:41:14;;;;;;;;;40.67;35.00;;;;;;;;4986167;27;45484;-73
2022/08/16 04:43:40;;;;;;;;;36.33;32.00;;;;;;;;4984887;27;45259;-73
2022/08/16 04:46:05;;;;;;;;;40.00;34.33;;;;;;;;4987741;27;45278;-73
2022/08/16 04:48:30;;;;;;;;;41.00;34.67;;;;;;;;4994685;27;45438;-73
2022/08/16 04:50:55;;;;;;;;;33.67;31.67;;;;;;;;4985596;27;45556;-73
2022/08/16 04:53:21;;;;;;;;;37.33;34.00;;;;;;;;4988663;27;45328;-73
2022/08/16 04:55:47;;;;;;;;;36.00;32.67;;;;;;;;4987937;27;45368;-75
2022/08/16 04:58:12;;;;;;;;;39.33;33.00;;;;;;;;4989987;28;45364;-73
2022/08/16 05:00:37;;;;;;;;;39.67;35.00;;;;;;;;4990876;27;45627;-73
2022/08/16 05:03:09;;;;;;;;;45.67;37.00;;;;;;;;4978539;27;46013;-73
2022/08/16 05:05:37;;;;;;;;;39.00;34.00;;;;;;;;4982185;27;46170;-73
2022/08/16 05:08:03;;;;;;;;;41.33;35.67;;;;;;;;4980279;27;45305;-73
2022/08/16 05:10:29;;;;;;;;;37.67;33.00;;;;;;;;4985244;27;45513;-74
2022/08/16 05:12:54;;;;;;;;;30.67;30.33;;;;;;;;4978216;27;45654;-74
2022/08/16 05:15:19;;;;;;;;;40.00;34.33;;;;;;;;4988557;27;45886;-75
2022/08/16 05:17:44;;;;;;;;;40.33;33.67;;;;;;;;4978887;27;45326;-74
2022/08/16 05:20:10;;;;;;;;;43.33;35.67;;;;;;;;4993302;27;45621;-74
2022/08/16 05:22:37;;;;;;;;;46.33;36.00;;;;;;;;4981690;27;45474;-74
2022/08/16 05:25:03;;;;;;;;;44.00;35.67;;;;;;;;4992031;28;45297;-77
2022/08/16 05:27:28;;;;;;;;;40.67;35.00;;;;;;;;4983689;27;45245;-74
2022/08/16 05:29:53;;;;;;;;;41.67;35.00;;;;;;;;4978804;27;45312;-75
2022/08/16 05:32:19;;;;;;;;;34.00;30.33;;;;;;;;4983425;27;45296;-75
2022/08/16 05:34:44;;;;;;;;;36.67;32.67;;;;;;;;5008241;27;47109;-76
2022/08/16 05:37:09;;;;;;;;;36.00;33.33;;;;;;;;4988846;27;45308;-76
2022/08/16 05:39:34;;;;;;;;;39.67;33.33;;;;;;;;4985019;27;45179;-75
2022/08/16 05:42:00;;;;;;;;;40.00;33.33;;;;;;;;4983129;28;45221;-75
2022/08/16 05:44:25;;;;;;;;;39.00;33.00;;;;;;;;4988183;27;46158;-78
2022/08/16 05:46:51;;;;;;;;;35.33;31.33;;;;;;;;4985898;28;45274;-76
2022/08/16 05:49:17;;;;;;;;;34.00;31.33;;;;;;;;4991201;28;45555;-75
2022/08/16 05:51:42;;;;;;;;;36.67;30.33;;;;;;;;4980068;27;45443;-74
2022/08/16 05:54:08;;;;;;;;;36.67;32.00;;;;;;;;4992624;28;46282;-78
2022/08/16 05:56:33;;;;;;;;;34.00;30.00;;;;;;;;4982510;28;45501;-75
2022/08/16 05:58:59;;;;;;;;;25.00;24.67;;;;;;;;4994089;27;45267;-74
2022/08/16 06:01:24;;;;;;;;;28.67;26.00;;;;;;;;4984548;28;45417;-73
2022/08/16 06:03:49;;;;;;;;;28.00;27.00;;;;;;;;4992632;27;45695;-74
2022/08/16 06:06:14;;;;;;;;;25.00;23.67;;;;;;;;4987256;27;45447;-74
2022/08/16 06:08:40;;;;;;;;;28.00;27.00;;;;;;;;4990734;27;45413;-74
2022/08/16 06:11:06;;;;;;;;;26.33;25.00;;;;;;;;4986274;27;45383;-74
2022/08/16 06:13:32;;;;;;;;;23.33;22.33;;;;;;;;4981309;27;45400;-74
2022/08/16 06:15:58;;;;;;;;;25.33;25.00;;;;;;;;4983196;27;45401;-74
2022/08/16 06:18:23;;;;;;;;;27.33;24.00;;;;;;;;4982553;28;45165;-74
2022/08/16 06:20:48;;;;;;;;;25.00;23.67;;;;;;;;4987301;28;45312;-75
2022/08/16 06:23:13;;;;;;;;;27.67;25.33;;;;;;;;4983096;28;45372;-74
2022/08/16 06:25:38;;;;;;;;;25.33;23.33;;;;;;;;4989971;27;45287;-74
2022/08/16 06:28:04;;;;;;;;;20.33;20.33;;;;;;;;4989175;27;45418;-75
2022/08/16 06:30:31;;;;;;;;;22.33;21.00;;;;;;;;4979549;28;45469;-74
2022/08/16 06:32:56;;;;;;;;;22.33;21.67;;;;;;;;4983470;28;45335;-75
2022/08/16 06:35:22;;;;;;;;;23.00;23.00;;;;;;;;5007225;27;45450;-74
2022/08/16 06:37:47;;;;;;;;;31.00;28.67;;;;;;;;4986830;28;45390;-74
2022/08/16 06:40:13;;;;;;;;;25.00;22.67;;;;;;;;4983601;28;47027;-75
2022/08/16 06:42:38;;;;;;;;;21.67;21.33;;;;;;;;4987868;27;45356;-75
2022/08/16 06:45:05;;;;;;;;;24.67;23.33;;;;;;;;4983756;28;45268;-75
2022/08/16 06:47:30;;;;;;;;;23.33;23.33;;;;;;;;4987495;27;45228;-74
2022/08/16 06:49:55;;;;;;;;;22.67;22.33;;;;;;;;4987971;27;46908;-74
2022/08/16 06:52:20;;;;;;;;;23.00;21.00;;;;;;;;4979847;28;45499;-74
2022/08/16 06:54:45;;;;;;;;;23.67;22.00;;;;;;;;4990829;28;45321;-74
2022/08/16 06:57:12;;;;;;;;;23.00;22.00;;;;;;;;4981296;28;45339;-75
2022/08/16 06:59:38;;;;;;;;;18.33;18.33;;;;;;;;4991473;28;46146;-73
2022/08/16 07:02:03;;;;;;;;;22.33;21.33;;;;;;;;4982844;28;45238;-73
2022/08/16 07:04:28;;;;;;;;;19.33;18.33;;;;;;;;4989157;27;45291;-73
2022/08/16 07:06:53;;;;;;;;;20.67;20.00;;;;;;;;4981132;28;45275;-73
2022/08/16 07:09:19;;;;;;;;;18.33;18.33;;;;;;;;4988699;28;45625;-73
2022/08/16 07:11:44;;;;;;;;;20.00;19.67;;;;;;;;4985611;28;45906;-73
2022/08/16 07:14:10;;;;;;;;;20.33;19.33;;;;;;;;4976041;27;45237;-73
2022/08/16 07:16:35;;;;;;;;;20.00;18.67;;;;;;;;4979506;27;45441;-73
2022/08/16 07:19:00;;;;;;;;;25.67;18.33;;;;;;;;4979203;28;45479;-73
2022/08/16 07:21:25;;;;;;;;;21.00;17.67;;;;;;;;4978704;27;45348;-73
2022/08/16 07:23:51;;;;;;;;;15.67;15.33;;;;;;;;4981145;28;45470;-73
2022/08/16 07:26:20;;;;;;;;;18.67;17.33;;;;;;;;4979845;28;45686;-74
2022/08/16 07:28:46;;;;;;;;;18.67;17.33;;;;;;;;4984904;27;46835;-74
2022/08/16 07:31:11;;;;;;;;;18.00;16.67;;;;;;;;4982250;28;47282;-74
2022/08/16 07:33:37;;;;;;;;;18.00;17.67;;;;;;;;4986680;27;45485;-72
2022/08/16 07:36:03;;;;;;;;;13.67;13.33;;;;;;;;4981630;28;45720;-73
2022/08/16 07:38:28;;;;;;;;;15.67;15.00;;;;;;;;4992050;27;45687;-73
2022/08/16 07:40:54;;;;;;;;;16.00;16.00;;;;;;;;4983484;27;45563;-74
2022/08/16 07:43:20;;;;;;;;;19.67;16.33;;;;;;;;4989237;28;45197;-74
2022/08/16 07:45:45;;;;;;;;;21.33;19.33;;;;;;;;4987217;28;45671;-74
2022/08/16 07:48:10;;;;;;;;;18.00;15.67;;;;;;;;4988163;27;45593;-75
2022/08/16 07:50:35;;;;;;;;;16.00;14.33;;;;;;;;4979830;28;45425;-74
2022/08/16 07:53:01;;;;;;;;;17.67;17.67;;;;;;;;4978058;28;45200;-74
2022/08/16 07:55:26;;;;;;;;;16.00;15.33;;;;;;;;4981734;28;45517;-75
2022/08/16 07:57:51;;;;;;;;;19.33;17.00;;;;;;;;4979756;27;45501;-74
2022/08/16 08:00:17;;;;;;;;;15.33;15.00;;;;;;;;4983416;28;45256;-75
2022/08/16 08:02:44;;;;;;;;;14.50;14.50;;;;;;;;4988155;28;45399;-75
2022/08/16 08:05:09;;;;;;;;;14.00;14.00;;;;;;;;4985701;28;45492;-75
2022/08/16 08:07:34;;;;;;;;;13.33;13.33;;;;;;;;4985214;28;45625;-75
2022/08/16 08:09:59;;;;;;;;;19.33;14.67;;;;;;;;4988001;27;45583;-75
2022/08/16 08:12:24;;;;;;;;;18.00;16.67;;;;;;;;4988095;27;45322;-75
2022/08/16 08:14:50;;;;;;;;;15.00;12.33;;;;;;;;4988371;27;45529;-76
2022/08/16 08:17:16;;;;;;;;;16.33;16.33;;;;;;;;4979766;28;45510;-73
2022/08/16 08:19:41;;;;;;;;;17.67;14.00;;;;;;;;4988461;28;45318;-73
2022/08/16 08:22:08;;;;;;;;;14.33;14.33;;;;;;;;4986954;27;45479;-73
2022/08/16 08:24:36;;;;;;;;;16.33;15.33;;;;;;;;4990390;28;45416;-72
2022/08/16 08:27:02;;;;;;;;;17.33;16.00;;;;;;;;4986795;27;45573;-71
2022/08/16 08:29:27;;;;;;;;;17.33;17.33;;;;;;;;4978906;27;45394;-74
2022/08/16 08:31:53;;;;;;;;;16.00;14.67;;;;;;;;4985137;28;45296;-74
2022/08/16 08:34:18;;;;;;;;;16.67;16.00;;;;;;;;5009722;27;45276;-75
2022/08/16 08:36:43;;;;;;;;;17.00;13.67;;;;;;;;4985987;28;45618;-75
2022/08/16 08:39:08;;;;;;;;;17.33;14.67;;;;;;;;4983543;27;45204;-74
2022/08/16 08:41:34;;;;;;;;;14.00;13.67;;;;;;;;4986865;27;45413;-74
2022/08/16 08:43:59;;;;;;;;;14.00;11.67;;;;;;;;4987050;28;45304;-73
2022/08/16 08:46:25;;;;;;;;;16.67;15.67;;;;;;;;4993781;28;45406;-74
2022/08/16 08:48:51;;;;;;;;;16.67;14.67;;;;;;;;4996191;28;46198;-73
2022/08/16 08:51:17;;;;;;;;;13.25;13.25;;;;;;;;4994298;28;45409;-73
2022/08/16 08:53:43;;;;;;;;;17.00;14.00;;;;;;;;4995981;28;45172;-74
2022/08/16 08:56:09;;;;;;;;;15.67;14.00;;;;;;;;4991995;28;45474;-73
2022/08/16 08:58:36;;;;;;;;;15.75;15.00;;;;;;;;4995881;28;46033;-73
2022/08/16 09:01:02;;;;;;;;;40.33;34.67;;;;;;;;4991908;28;45438;-73
2022/08/16 09:03:28;;;;;;;;;16.00;16.00;;;;;;;;4996243;28;45375;-77
2022/08/16 09:05:53;;;;;;;;;17.00;16.00;;;;;;;;4989176;28;45355;-76
2022/08/16 09:08:18;;;;;;;;;15.33;15.00;;;;;;;;4997371;27;45473;-76
2022/08/16 09:10:43;;;;;;;;;18.67;17.67;;;;;;;;4988621;27;45737;-76
2022/08/16 09:13:09;;;;;;;;;17.33;17.33;;;;;;;;4985095;28;45386;-77
2022/08/16 09:15:34;;;;;;;;;12.00;12.00;;;;;;;;4984623;28;45577;-78
2022/08/16 09:18:03;;;;;;;;;9.75;9.75;;;;;;;;4993636;28;47585;-76
2022/08/16 09:20:28;;;;;;;;;16.50;13.50;;;;;;;;4989813;27;45372;-76
2022/08/16 09:22:54;;;;;;;;;15.75;14.50;;;;;;;;4993399;28;45225;-77
2022/08/16 09:25:20;;;;;;;;;11.50;10.00;;;;;;;;4994490;28;45189;-76
2022/08/16 09:27:45;;;;;;;;;15.25;15.25;;;;;;;;4990598;28;45178;-77
2022/08/16 09:30:10;;;;;;;;;9.75;9.75;;;;;;;;4994305;28;45146;-77
2022/08/16 09:32:36;;;;;;;;;15.75;13.50;;;;;;;;4993543;28;45228;-77
2022/08/16 09:35:02;;;;;;;;;15.25;14.25;;;;;;;;4999216;27;45575;-77
2022/08/16 09:37:29;;;;;;;;;13.75;12.00;;;;;;;;4993234;28;48487;-76
2022/08/16 09:39:54;;;;;;;;;15.25;12.00;;;;;;;;4993455;28;45828;-75
2022/08/16 09:42:19;;;;;;;;;17.00;13.00;;;;;;;;4987587;28;45351;-77
2022/08/16 09:44:45;;;;;;;;;13.00;12.75;;;;;;;;4979698;28;45328;-76
2022/08/16 09:47:11;;;;;;;;;13.25;13.25;;;;;;;;4979909;28;45465;-77
2022/08/16 09:49:36;;;;;;;;;14.50;12.75;;;;;;;;4981231;28;45487;-76
2022/08/16 09:52:01;;;;;;;;;23.75;21.50;;;;;;;;4993009;28;45366;-77
2022/08/16 09:54:27;;;;;;;;;11.75;11.75;;;;;;;;4996106;27;45454;-78
2022/08/16 09:56:52;;;;;;;;;17.00;13.75;;;;;;;;4991897;28;47052;-78
2022/08/16 09:59:18;;;;;;;;;8.75;7.75;;;;;;;;4994089;28;45391;-76
2022/08/16 10:01:43;;;;;;;;;16.25;13.25;;;;;;;;4982562;28;45374;-78
2022/08/16 10:04:09;;;;;;;;;16.75;14.25;;;;;;;;4992452;27;45263;-77
2022/08/16 10:06:34;;;;;;;;;11.50;8.75;;;;;;;;4985460;27;45437;-78
2022/08/16 10:09:06;;;;;;;;;11.00;11.00;;;;;;;;4994247;27;45226;-78
2022/08/16 10:14:15;;;;;;;;;16.25;15.00;;;;;;;;4987490;27;45366;-77
2022/08/16 10:16:42;;;;;;;;;11.25;11.25;;;;;;;;4982089;27;46123;-78
2022/08/16 10:19:07;;;;;;;;;13.00;13.00;;;;;;;;4978373;27;45389;-78
2022/08/16 10:21:32;;;;;;;;;13.50;13.00;;;;;;;;4982088;28;45335;-78
2022/08/16 10:23:58;;;;;;;;;11.75;11.75;;;;;;;;4980193;28;45242;-78
2022/08/16 10:26:23;;;;;;;;;11.50;11.50;;;;;;;;4981636;28;45218;-78
2022/08/16 10:28:49;;;;;;;;;10.00;10.00;;;;;;;;4990449;27;45293;-78
2022/08/16 10:31:14;;;;;;;;;11.50;11.50;;;;;;;;4982792;28;45225;-78
2022/08/16 10:33:40;;;;;;;;;10.75;9.50;;;;;;;;4988554;27;45695;-78
2022/08/16 10:36:06;;;;;;;;;11.75;11.25;;;;;;;;5008719;27;45359;-78
2022/08/16 10:38:33;;;;;;;;;10.80;8.60;;;;;;;;4995879;27;45218;-78
2022/08/16 10:40:59;;;;;;;;;12.20;9.80;;;;;;;;4988077;27;45442;-77
2022/08/16 10:43:24;;;;;;;;;9.50;8.75;;;;;;;;4994520;27;45664;-78
2022/08/16 10:45:50;;;;;;;;;11.25;11.00;;;;;;;;4990912;28;48024;-77
2022/08/16 10:48:16;;;;;;;;;10.20;10.00;;;;;;;;4992096;28;45391;-78
2022/08/16 10:50:41;;;;;;;;;14.00;13.00;;;;;;;;4988134;28;45568;-79
2022/08/16 10:53:06;;;;;;;;;10.50;10.50;;;;;;;;4986047;28;45330;-78
2022/08/16 10:55:36;;;;;;;;;13.00;12.25;;;;;;;;4984713;28;46605;-77
2022/08/16 10:58:02;;;;;;;;;14.80;12.40;;;;;;;;4982302;28;45254;-77
2022/08/16 11:00:28;;;;;;;;;13.00;13.00;;;;;;;;4982433;28;45348;-78
2022/08/16 11:02:53;;;;;;;;;11.25;11.25;;;;;;;;4982508;27;45518;-77
2022/08/16 11:05:18;;;;;;;;;13.25;13.25;;;;;;;;4986342;28;46029;-78
2022/08/16 11:07:45;;;;;;;;;12.25;12.25;;;;;;;;4983938;28;45269;-77
2022/08/16 11:10:12;;;;;;;;;15.00;13.00;;;;;;;;4985504;27;45470;-77
2022/08/16 11:12:38;;;;;;;;;13.00;11.00;;;;;;;;4980043;27;45334;-78
2022/08/16 11:15:04;;;;;;;;;11.25;11.25;;;;;;;;4986473;28;46039;-78
2022/08/16 11:17:29;;;;;;;;;14.25;11.75;;;;;;;;4983581;28;45529;-78
2022/08/16 11:19:54;;;;;;;;;11.25;10.00;;;;;;;;4988649;27;45191;-78
2022/08/16 11:22:20;;;;;;;;;12.75;11.50;;;;;;;;4983626;28;45280;-78
2022/08/16 11:24:45;;;;;;;;;13.00;12.50;;;;;;;;4989171;27;45335;-78
2022/08/16 11:27:19;;;;;;;;;15.75;13.00;;;;;;;;4981901;28;45395;-78
2022/08/16 11:29:44;;;;;;;;;10.25;10.25;;;;;;;;4979735;27;45285;-79
2022/08/16 11:32:09;;;;;;;;;12.25;11.25;;;;;;;;4982739;28;45260;-78
2022/08/16 11:34:34;;;;;;;;;16.00;13.50;;;;;;;;5008521;27;45285;-77
2022/08/16 11:37:00;;;;;;;;;13.00;13.00;;;;;;;;4981583;28;45360;-78
2022/08/16 11:39:26;;;;;;;;;12.50;12.50;;;;;;;;4985981;28;45503;-78
2022/08/16 11:41:51;;;;;;;;;13.50;13.50;;;;;;;;4984285;28;45386;-78
2022/08/16 11:44:17;;;;;;;;;15.00;14.75;;;;;;;;4988207;28;45403;-78
2022/08/16 11:46:42;;;;;;;;;13.00;13.00;;;;;;;;4991426;27;45376;-77
2022/08/16 11:49:07;;;;;;;;;5.25;5.25;;;;;;;;4993544;28;45225;-77
2022/08/16 11:51:32;;;;;;;;;17.75;14.75;;;;;;;;4989680;28;46061;-76
2022/08/16 11:53:58;;;;;;;;;59.67;48.00;;;;;;;;4997498;27;45279;-77
2022/08/16 11:56:23;;;;;;;;;14.50;14.00;;;;;;;;4987761;28;45486;-76
2022/08/16 11:58:48;;;;;;;;;14.00;13.00;;;;;;;;4980938;27;45243;-77
2022/08/16 12:01:14;;;;;;;;;11.00;10.75;;;;;;;;4981889;27;45557;-76
2022/08/16 12:03:40;;;;;;;;;10.75;10.75;;;;;;;;4985087;27;45548;-78
2022/08/16 12:06:09;;;;;;;;;11.00;10.75;;;;;;;;4981164;28;45377;-78
2022/08/16 12:08:35;;;;;;;;;15.25;15.25;;;;;;;;4984248;28;45280;-72
2022/08/16 12:11:00;;;;;;;;;18.50;15.25;;;;;;;;4980553;27;45282;-76
2022/08/16 12:13:26;;;;;;;;;24.00;23.33;;;;;;;;4987206;27;45969;-79
2022/08/16 12:15:51;;;;;;;;;15.25;15.25;;;;;;;;4989647;27;45263;-77
2022/08/16 12:18:17;;;;;;;;;16.25;13.75;;;;;;;;4986767;27;45176;-76
2022/08/16 12:20:43;;;;;;;;;38.00;33.00;;;;;;;;4991519;27;45254;-76
2022/08/16 12:23:08;;;;;;;;;16.50;14.50;;;;;;;;4982833;27;45446;-76
2022/08/16 12:25:34;;;;;;;;;20.50;19.25;;;;;;;;4983692;27;45347;-75
2022/08/16 12:27:59;;;;;;;;;20.50;18.25;;;;;;;;4983072;28;45283;-75
2022/08/16 12:30:30;;;;;;;;;14.75;14.50;;;;;;;;4980526;28;46894;-74
2022/08/16 12:32:56;;;;;;;;;16.50;15.00;;;;;;;;4987889;27;45304;-74
2022/08/16 12:35:21;;;;;;;;;35.00;31.00;;;;;;;;5011282;27;45580;-75
2022/08/16 12:37:47;;;;;;;;;52.33;43.33;;;;;;;;4987985;27;45473;-75
2022/08/16 12:40:14;;;;;;;;;14.25;13.25;;;;;;;;4986180;28;45397;-74
2022/08/16 12:42:40;;;;;;;;;17.75;15.00;;;;;;;;4980600;27;47618;-74
2022/08/16 12:45:07;;;;;;;;;13.75;13.00;;;;;;;;4982707;27;45343;-74
2022/08/16 12:50:17;;;;;;;;;13.25;13.25;;;;;;;;4984129;27;45371;-75
2022/08/16 12:52:42;;;;;;;;;14.25;14.25;;;;;;;;4988162;27;46047;-74
2022/08/16 12:55:10;;;;;;;;;17.25;14.00;;;;;;;;4989318;27;45433;-73
2022/08/16 12:57:35;;;;;;;;;16.50;16.50;;;;;;;;4983967;28;45286;-72
2022/08/16 13:00:00;;;;;;;;;13.50;13.50;;;;;;;;4987368;27;46191;-72
2022/08/16 13:02:25;;;;;;;;;15.00;15.00;;;;;;;;4985302;28;45279;-74
2022/08/16 13:04:51;;;;;;;;;13.50;13.50;;;;;;;;4989883;27;45263;-75
2022/08/16 13:07:16;;;;;;;;;14.50;14.25;;;;;;;;4987936;27;45614;-74
2022/08/16 13:09:52;;;;;;;;;15.25;14.00;;;;;;;;4990812;28;45203;-75
2022/08/16 13:12:23;;;;;;;;;10.00;8.50;;;;;;;;4988283;27;46820;-74
2022/08/16 13:14:49;;;;;;;;;13.50;11.75;;;;;;;;4987773;27;45449;-73
2022/08/16 13:17:18;;;;;;;;;13.25;11.50;;;;;;;;4980705;27;45382;-73
2022/08/16 13:19:43;;;;;;;;;14.50;14.50;;;;;;;;4990277;27;45796;-74
2022/08/16 13:22:08;;;;;;;;;13.50;13.50;;;;;;;;4988174;27;46696;-74
2022/08/16 13:24:34;;;;;;;;;11.25;9.75;;;;;;;;4990232;27;45300;-73
2022/08/16 13:26:59;;;;;;;;;10.25;10.25;;;;;;;;4985310;27;45418;-73
2022/08/16 13:29:24;;;;;;;;;22.00;19.50;;;;;;;;4980764;28;45276;-73
2022/08/16 13:31:50;;;;;;;;;13.75;12.25;;;;;;;;4984001;27;46293;-74
2022/08/16 13:34:15;;;;;;;;;12.50;11.25;;;;;;;;5011008;27;45414;-74
2022/08/16 13:36:41;;;;;;;;;15.75;14.00;;;;;;;;4986283;27;45539;-74
2022/08/16 13:39:08;;;;;;;;;16.00;15.00;;;;;;;;4984666;28;45548;-74
2022/08/16 13:41:33;;;;;;;;;13.25;12.00;;;;;;;;4988812;28;45424;-74
2022/08/16 13:44:00;;;;;;;;;14.25;14.25;;;;;;;;4986292;27;45306;-74
2022/08/16 13:46:26;;;;;;;;;14.25;13.00;;;;;;;;4982970;27;45413;-73
2022/08/16 13:48:51;;;;;;;;;16.75;15.50;;;;;;;;4988081;28;45385;-73
2022/08/16 13:51:17;;;;;;;;;15.25;13.50;;;;;;;;4985941;28;45480;-74
2022/08/16 13:53:44;;;;;;;;;15.50;13.00;;;;;;;;4989846;28;45176;-77
2022/08/16 13:56:09;;;;;;;;;15.75;14.25;;;;;;;;4987894;27;45479;-77
2022/08/16 13:58:35;;;;;;;;;13.75;12.25;;;;;;;;4990452;27;45380;-71
2022/08/16 14:01:01;;;;;;;;;16.25;15.25;;;;;;;;4980112;27;46773;-71
2022/08/16 14:03:26;;;;;;;;;16.50;13.75;;;;;;;;4979242;28;45429;-71
2022/08/16 14:05:51;;;;;;;;;18.50;15.50;;;;;;;;4982293;27;45298;-72
2022/08/16 14:08:17;;;;;;;;;14.00;14.00;;;;;;;;4980376;27;45276;-73
2022/08/16 14:10:42;;;;;;;;;8.00;8.00;;;;;;;;4982494;27;45418;-73
2022/08/16 14:13:07;;;;;;;;;15.00;14.50;;;;;;;;4983005;27;45446;-73
2022/08/16 14:15:33;;;;;;;;;14.25;14.25;;;;;;;;4987080;28;45399;-73